Time;durP1;ratioP1;P1;durP2;ratioP2;P2;SDS_P1;SDS_P2;PMS_P1;PMS_P2;Temp;Humidity;BMP_temperature;BMP_pressure;BME280_temperature;BME280_humidity;BME280_pressure;Samples;Min_cycle;Max_cycle;Signal;HPM_P1;HPM_P2
2022/12/10 00:01:05;;;;;;;135.45;39.80;;;;;;;;;;5054240;28;20045;-65
2022/12/10 00:03:32;;;;;;;133.45;39.45;;;;;;;;;;5054239;28;20362;-65
2022/12/10 00:06:04;;;;;;;144.00;39.47;;;;;;;;;;5055337;28;20052;-65
2022/12/10 00:08:31;;;;;;;139.35;40.10;;;;;;;;;;5055358;28;20773;-66
2022/12/10 00:10:57;;;;;;;128.90;40.00;;;;;;;;;;5055488;28;20527;-65
2022/12/10 00:13:23;;;;;;;139.15;40.22;;;;;;;;;;5054880;28;20044;-65
2022/12/10 00:15:49;;;;;;;135.23;39.92;;;;;;;;;;5054058;28;20389;-66
2022/12/10 00:18:15;;;;;;;140.98;40.35;;;;;;;;;;5053888;28;20454;-66
2022/12/10 00:20:41;;;;;;;156.77;44.03;;;;;;;;;;5053724;28;20068;-66
2022/12/10 00:23:07;;;;;;;134.38;39.83;;;;;;;;;;5055113;28;20079;-66
2022/12/10 00:25:33;;;;;;;144.00;40.28;;;;;;;;;;5036855;28;20033;-66
2022/12/10 00:28:00;;;;;;;139.52;40.47;;;;;;;;;;5053992;28;20362;-65
2022/12/10 00:30:26;;;;;;;144.85;40.90;;;;;;;;;;5054970;28;20041;-66
2022/12/10 00:32:52;;;;;;;150.05;41.15;;;;;;;;;;5053719;28;20045;-66
2022/12/10 00:35:18;;;;;;;133.57;39.00;;;;;;;;;;5036763;28;20049;-70
2022/12/10 00:37:44;;;;;;;132.60;40.13;;;;;;;;;;5054041;28;20382;-70
2022/12/10 00:40:10;;;;;;;153.35;39.58;;;;;;;;;;5053844;28;20389;-70
2022/12/10 00:42:37;;;;;;;155.63;39.90;;;;;;;;;;5053791;28;20432;-71
2022/12/10 00:45:03;;;;;;;151.35;40.75;;;;;;;;;;5053707;28;20041;-71
2022/12/10 00:47:29;;;;;;;153.55;39.67;;;;;;;;;;5054906;28;20474;-71
2022/12/10 00:49:56;;;;;;;142.38;41.75;;;;;;;;;;5054689;28;20045;-70
2022/12/10 00:52:22;;;;;;;149.65;40.97;;;;;;;;;;5055086;28;20041;-71
2022/12/10 00:54:48;;;;;;;151.57;41.47;;;;;;;;;;5054453;28;20091;-71
2022/12/10 00:57:14;;;;;;;148.05;41.90;;;;;;;;;;5053712;28;20116;-70
2022/12/10 00:59:40;;;;;;;149.32;42.63;;;;;;;;;;5036762;28;20056;-70
2022/12/10 01:02:06;;;;;;;151.55;39.58;;;;;;;;;;5053282;28;20047;-70
2022/12/10 01:04:32;;;;;;;157.68;42.55;;;;;;;;;;5054438;28;20037;-71
2022/12/10 01:06:59;;;;;;;156.90;44.35;;;;;;;;;;5053335;28;20045;-71
2022/12/10 01:09:29;;;;;;;148.93;41.10;;;;;;;;;;5016924;28;20029;-70
2022/12/10 01:11:58;;;;;;;152.75;42.40;;;;;;;;;;5052361;28;20040;-72
2022/12/10 01:14:28;;;;;;;133.70;41.25;;;;;;;;;;5036788;28;20040;-71
2022/12/10 01:16:55;;;;;;;151.80;41.75;;;;;;;;;;5052929;28;20405;-70
2022/12/10 01:19:21;;;;;;;136.35;40.35;;;;;;;;;;5049416;28;20091;-70
2022/12/10 01:21:54;;;;;;;154.40;42.58;;;;;;;;;;5060486;28;20076;-71
2022/12/10 01:24:21;;;;;;;152.05;42.08;;;;;;;;;;5049615;28;20041;-71
2022/12/10 01:26:47;;;;;;;139.85;43.00;;;;;;;;;;5047871;28;20404;-70
2022/12/10 01:29:13;;;;;;;146.90;41.83;;;;;;;;;;5052520;28;20048;-66
2022/12/10 01:31:39;;;;;;;147.27;41.63;;;;;;;;;;5052568;28;20565;-66
2022/12/10 01:34:06;;;;;;;153.50;41.72;;;;;;;;;;5052729;28;20123;-66
2022/12/10 01:36:36;;;;;;;141.93;41.10;;;;;;;;;;5052474;28;20041;-66
2022/12/10 01:39:03;;;;;;;163.73;44.83;;;;;;;;;;5052258;28;20557;-66
2022/12/10 01:41:34;;;;;;;141.15;43.25;;;;;;;;;;5052139;28;20041;-66
2022/12/10 01:44:10;;;;;;;155.18;43.15;;;;;;;;;;5052397;28;20041;-66
2022/12/10 01:46:40;;;;;;;157.50;42.53;;;;;;;;;;5052102;28;20045;-66
2022/12/10 01:49:08;;;;;;;155.20;42.42;;;;;;;;;;5052151;28;20378;-66
2022/12/10 01:51:36;;;;;;;142.93;42.22;;;;;;;;;;5052218;28;20125;-66
2022/12/10 01:54:03;;;;;;;146.10;43.85;;;;;;;;;;5052409;28;20067;-66
2022/12/10 01:56:29;;;;;;;136.23;41.53;;;;;;;;;;5052103;28;20045;-66
2022/12/10 01:58:56;;;;;;;166.45;44.40;;;;;;;;;;5052408;28;20099;-66
2022/12/10 02:01:22;;;;;;;147.27;43.47;;;;;;;;;;5051854;28;20041;-66
2022/12/10 02:03:52;;;;;;;138.40;40.80;;;;;;;;;;5052121;28;20033;-66
2022/12/10 02:06:37;;;;;;;158.43;43.10;;;;;;;;;;5053166;28;20072;-66
2022/12/10 02:09:18;;;;;;;161.32;43.67;;;;;;;;;;5037742;28;20408;-66
2022/12/10 02:11:51;;;;;;;149.95;44.75;;;;;;;;;;5035497;28;20033;-66
2022/12/10 02:14:17;;;;;;;144.05;43.00;;;;;;;;;;5051569;28;20048;-66
2022/12/10 02:16:47;;;;;;;150.35;43.80;;;;;;;;;;5051360;28;20064;-66
2022/12/10 02:19:26;;;;;;;151.25;44.08;;;;;;;;;;5065277;28;20068;-66
2022/12/10 02:21:53;;;;;;;137.15;42.22;;;;;;;;;;5033207;28;20453;-66
2022/12/10 02:24:23;;;;;;;144.75;42.78;;;;;;;;;;5052102;28;20048;-66
2022/12/10 02:26:57;;;;;;;135.45;41.30;;;;;;;;;;5053146;28;20048;-66
2022/12/10 02:29:28;;;;;;;129.15;41.72;;;;;;;;;;5051841;28;20049;-66
2022/12/10 02:31:56;;;;;;;148.02;42.05;;;;;;;;;;5051716;28;20040;-65
2022/12/10 02:34:23;;;;;;;139.38;42.10;;;;;;;;;;5051596;28;20037;-66
2022/12/10 02:36:51;;;;;;;142.63;41.08;;;;;;;;;;5051544;28;20037;-66
2022/12/10 02:39:21;;;;;;;134.05;43.10;;;;;;;;;;5051464;28;20052;-70
2022/12/10 02:41:58;;;;;;;141.55;43.20;;;;;;;;;;5051651;28;20037;-70
2022/12/10 02:44:26;;;;;;;132.05;40.90;;;;;;;;;;5034852;28;20128;-70
2022/12/10 02:46:55;;;;;;;138.77;44.47;;;;;;;;;;5035211;28;20072;-70
2022/12/10 02:49:22;;;;;;;135.43;41.88;;;;;;;;;;5051577;28;20474;-70
2022/12/10 02:51:48;;;;;;;138.73;41.78;;;;;;;;;;5051526;28;20044;-70
2022/12/10 02:54:37;;;;;;;128.75;41.97;;;;;;;;;;5051205;28;20120;-70
2022/12/10 02:57:08;;;;;;;138.88;43.33;;;;;;;;;;5079420;28;20047;-70
2022/12/10 02:59:42;;;;;;;141.23;43.42;;;;;;;;;;5051674;28;20060;-70
2022/12/10 03:02:17;;;;;;;139.32;42.05;;;;;;;;;;5051795;28;20039;-70
2022/12/10 03:04:43;;;;;;;141.43;43.58;;;;;;;;;;5051677;28;20469;-70
2022/12/10 03:07:12;;;;;;;128.57;40.53;;;;;;;;;;5052950;28;20500;-70
2022/12/10 03:09:40;;;;;;;143.90;43.38;;;;;;;;;;5055008;28;20521;-70
2022/12/10 03:12:20;;;;;;;143.65;41.05;;;;;;;;;;5055524;28;20039;-70
2022/12/10 03:14:46;;;;;;;139.10;41.33;;;;;;;;;;5055317;28;20164;-70
2022/12/10 03:17:13;;;;;;;144.77;42.85;;;;;;;;;;5055396;28;20448;-70
2022/12/10 03:19:42;;;;;;;141.18;41.45;;;;;;;;;;5055261;28;20128;-70
2022/12/10 03:22:10;;;;;;;146.65;43.08;;;;;;;;;;5055119;28;20041;-70
2022/12/10 03:24:36;;;;;;;142.18;41.42;;;;;;;;;;5054945;28;20037;-70
2022/12/10 03:27:04;;;;;;;133.77;41.55;;;;;;;;;;5055337;28;20162;-70
2022/12/10 03:29:33;;;;;;;144.90;42.00;;;;;;;;;;5038457;28;20406;-70
2022/12/10 03:32:00;;;;;;;145.25;42.67;;;;;;;;;;5055061;28;20099;-70
2022/12/10 03:34:26;;;;;;;141.00;43.15;;;;;;;;;;5054636;28;20120;-70
2022/12/10 03:36:53;;;;;;;144.07;43.92;;;;;;;;;;5055086;28;20037;-70
2022/12/10 03:39:19;;;;;;;145.60;42.15;;;;;;;;;;5055008;28;20044;-70
2022/12/10 03:41:45;;;;;;;139.70;42.65;;;;;;;;;;5054661;28;20138;-70
2022/12/10 03:44:12;;;;;;;191.95;42.28;;;;;;;;;;5054845;28;20175;-70
2022/12/10 03:46:38;;;;;;;140.15;41.92;;;;;;;;;;5055157;28;20463;-70
2022/12/10 03:49:04;;;;;;;124.55;40.47;;;;;;;;;;5054932;28;20133;-70
2022/12/10 03:51:31;;;;;;;116.45;36.88;;;;;;;;;;5054585;28;20186;-70
2022/12/10 03:53:57;;;;;;;132.73;38.00;;;;;;;;;;5054196;28;20041;-70
2022/12/10 03:56:23;;;;;;;134.52;40.78;;;;;;;;;;5054896;28;20037;-70
2022/12/10 03:58:49;;;;;;;186.48;40.47;;;;;;;;;;5054685;28;20044;-70
2022/12/10 04:01:16;;;;;;;162.48;40.47;;;;;;;;;;5054362;28;20493;-70
2022/12/10 04:03:42;;;;;;;130.77;38.50;;;;;;;;;;5054251;28;20033;-70
2022/12/10 04:06:10;;;;;;;155.75;38.08;;;;;;;;;;5054426;28;20063;-70
2022/12/10 04:08:36;;;;;;;143.77;38.78;;;;;;;;;;5054611;28;20049;-70
2022/12/10 04:11:06;;;;;;;189.98;40.80;;;;;;;;;;5037690;28;20041;-70
2022/12/10 04:16:26;;;;;;;137.05;39.40;;;;;;;;;;5054383;28;20401;-73
2022/12/10 04:18:53;;;;;;;144.60;39.45;;;;;;;;;;5053740;28;20494;-73
2022/12/10 04:26:51;;;;;;;142.93;36.10;;;;;;;;;;5053805;28;20145;-73
2022/12/10 04:29:18;;;;;;;160.48;38.50;;;;;;;;;;5037233;28;20036;-73
2022/12/10 04:31:44;;;;;;;123.22;34.50;;;;;;;;;;5054083;28;20132;-73
2022/12/10 04:34:10;;;;;;;172.52;35.33;;;;;;;;;;5053920;28;20048;-70
2022/12/10 04:36:36;;;;;;;166.93;34.40;;;;;;;;;;5053620;28;20449;-70
2022/12/10 04:39:02;;;;;;;170.18;35.75;;;;;;;;;;5053529;28;20033;-70
2022/12/10 04:41:28;;;;;;;140.60;33.00;;;;;;;;;;5053455;28;20056;-70
2022/12/10 04:43:54;;;;;;;125.13;32.20;;;;;;;;;;5070858;28;20041;-70
2022/12/10 04:46:20;;;;;;;145.90;33.90;;;;;;;;;;5052951;28;20065;-70
2022/12/10 04:48:46;;;;;;;165.25;34.15;;;;;;;;;;5053872;28;20041;-70
2022/12/10 04:51:12;;;;;;;153.60;33.63;;;;;;;;;;5053427;28;20040;-70
2022/12/10 04:53:39;;;;;;;126.47;34.78;;;;;;;;;;5053567;28;20041;-70
2022/12/10 04:56:05;;;;;;;116.68;33.83;;;;;;;;;;5036756;28;20036;-70
2022/12/10 04:58:32;;;;;;;174.85;33.00;;;;;;;;;;5020615;28;20047;-70
2022/12/10 05:01:05;;;;;;;117.68;32.60;;;;;;;;;;5053256;28;20120;-70
2022/12/10 05:03:31;;;;;;;136.50;33.63;;;;;;;;;;5053847;28;20044;-70
2022/12/10 05:06:01;;;;;;;123.82;30.25;;;;;;;;;;5036652;28;20115;-70
2022/12/10 05:08:28;;;;;;;118.43;30.33;;;;;;;;;;5053170;28;20056;-70
2022/12/10 05:10:54;;;;;;;136.80;29.35;;;;;;;;;;5053195;28;20102;-70
2022/12/10 05:13:20;;;;;;;269.35;33.45;;;;;;;;;;5053207;28;20127;-70
2022/12/10 05:15:46;;;;;;;129.38;29.05;;;;;;;;;;5052922;28;20094;-70
2022/12/10 05:18:12;;;;;;;146.23;30.20;;;;;;;;;;5053133;28;20052;-70
2022/12/10 05:20:38;;;;;;;101.93;26.83;;;;;;;;;;5052464;28;20076;-70
2022/12/10 05:25:54;;;;;;;91.30;28.48;;;;;;;;;;5052813;28;20045;-70
2022/12/10 05:28:23;;;;;;;114.90;27.55;;;;;;;;;;5033073;28;20072;-73
2022/12/10 05:30:49;;;;;;;103.55;26.95;;;;;;;;;;5038622;28;20044;-72
2022/12/10 05:33:16;;;;;;;131.32;27.50;;;;;;;;;;5053032;28;20393;-73
2022/12/10 05:35:42;;;;;;;91.28;27.63;;;;;;;;;;5052979;28;20103;-73
2022/12/10 05:38:10;;;;;;;118.70;26.92;;;;;;;;;;5048221;28;20554;-73
2022/12/10 05:40:36;;;;;;;141.35;29.30;;;;;;;;;;5052497;28;20501;-72
2022/12/10 05:43:03;;;;;;;147.27;25.23;;;;;;;;;;5052834;28;20398;-73
2022/12/10 05:45:29;;;;;;;84.88;25.40;;;;;;;;;;5052933;28;20091;-73
2022/12/10 05:47:55;;;;;;;80.55;23.83;;;;;;;;;;5052743;28;20397;-72
2022/12/10 05:50:21;;;;;;;90.10;22.58;;;;;;;;;;5052886;28;20110;-73
2022/12/10 05:52:47;;;;;;;110.68;26.83;;;;;;;;;;5052420;28;20045;-73
2022/12/10 05:55:13;;;;;;;190.80;26.38;;;;;;;;;;5052597;28;20048;-72
2022/12/10 05:57:39;;;;;;;86.63;24.25;;;;;;;;;;5052253;28;20093;-73
2022/12/10 06:00:05;;;;;;;112.45;24.23;;;;;;;;;;5035732;28;20051;-73
2022/12/10 06:02:34;;;;;;;67.70;22.88;;;;;;;;;;5051956;28;20513;-73
2022/12/10 06:05:00;;;;;;;90.53;23.55;;;;;;;;;;5052325;28;20041;-73
2022/12/10 06:07:26;;;;;;;92.32;25.05;;;;;;;;;;5051725;28;20087;-73
2022/12/10 06:09:52;;;;;;;85.72;24.27;;;;;;;;;;5035273;28;20037;-73
2022/12/10 06:12:19;;;;;;;75.20;22.63;;;;;;;;;;5052230;28;20044;-73
2022/12/10 06:14:45;;;;;;;86.05;25.67;;;;;;;;;;5035226;28;20079;-73
2022/12/10 06:17:11;;;;;;;72.80;21.58;;;;;;;;;;5052303;28;20049;-73
2022/12/10 06:19:37;;;;;;;68.38;22.55;;;;;;;;;;5068056;28;20037;-73
2022/12/10 06:22:03;;;;;;;97.60;22.38;;;;;;;;;;5048428;28;20063;-73
2022/12/10 06:24:29;;;;;;;82.60;23.23;;;;;;;;;;5047649;28;20045;-73
2022/12/10 06:26:55;;;;;;;67.40;22.95;;;;;;;;;;5052354;28;20116;-73
2022/12/10 06:29:21;;;;;;;85.05;22.00;;;;;;;;;;5035415;28;20040;-73
2022/12/10 06:31:47;;;;;;;116.25;21.98;;;;;;;;;;5035536;28;20040;-73
2022/12/10 06:34:13;;;;;;;142.15;23.10;;;;;;;;;;5051699;28;20056;-73
2022/12/10 06:36:39;;;;;;;109.18;22.45;;;;;;;;;;5051724;28;20040;-73
2022/12/10 06:39:06;;;;;;;86.50;21.85;;;;;;;;;;5051523;28;20080;-73
2022/12/10 06:41:32;;;;;;;89.45;21.23;;;;;;;;;;5035243;28;20040;-73
2022/12/10 06:43:58;;;;;;;110.85;23.58;;;;;;;;;;5051384;28;20480;-73
2022/12/10 06:46:25;;;;;;;71.18;23.85;;;;;;;;;;5052992;28;20049;-73
2022/12/10 06:48:51;;;;;;;68.80;21.48;;;;;;;;;;5051591;28;20389;-73
2022/12/10 06:51:17;;;;;;;109.18;21.67;;;;;;;;;;5051829;28;20045;-73
2022/12/10 06:53:44;;;;;;;89.57;22.38;;;;;;;;;;5051221;28;20136;-73
2022/12/10 06:56:15;;;;;;;96.75;23.90;;;;;;;;;;5051423;28;20048;-73
2022/12/10 06:58:43;;;;;;;100.50;21.75;;;;;;;;;;5035015;28;20052;-73
2022/12/10 07:01:14;;;;;;;78.28;20.58;;;;;;;;;;5031627;28;20045;-73
2022/12/10 07:03:40;;;;;;;58.60;19.58;;;;;;;;;;5044005;28;20124;-72
2022/12/10 07:06:07;;;;;;;78.25;20.65;;;;;;;;;;5034824;28;20091;-73
2022/12/10 07:08:33;;;;;;;68.55;20.63;;;;;;;;;;5051620;28;20393;-72
2022/12/10 07:10:59;;;;;;;86.57;21.25;;;;;;;;;;5051583;28;20084;-72
2022/12/10 07:13:25;;;;;;;93.63;22.70;;;;;;;;;;5051701;28;20076;-72
2022/12/10 07:15:51;;;;;;;99.05;22.13;;;;;;;;;;5051342;28;20101;-73
2022/12/10 07:18:18;;;;;;;78.80;21.13;;;;;;;;;;5051690;28;20041;-73
2022/12/10 07:20:44;;;;;;;62.35;19.33;;;;;;;;;;5051541;28;20123;-73
2022/12/10 07:23:10;;;;;;;96.68;22.35;;;;;;;;;;5051540;28;20045;-73
2022/12/10 07:25:36;;;;;;;83.88;20.73;;;;;;;;;;5051412;28;20304;-72
2022/12/10 07:28:02;;;;;;;100.95;20.23;;;;;;;;;;5051366;28;20042;-73
2022/12/10 07:30:28;;;;;;;68.15;20.40;;;;;;;;;;5051015;28;20044;-73
2022/12/10 07:32:54;;;;;;;82.15;19.88;;;;;;;;;;5051389;28;20428;-73
2022/12/10 07:35:20;;;;;;;120.50;22.48;;;;;;;;;;5034624;28;20037;-73
2022/12/10 07:37:46;;;;;;;69.70;19.00;;;;;;;;;;5034935;28;20045;-73
2022/12/10 07:40:12;;;;;;;84.30;18.33;;;;;;;;;;5050586;28;20045;-73
2022/12/10 07:42:38;;;;;;;65.50;18.75;;;;;;;;;;5051352;28;20578;-72
2022/12/10 07:45:04;;;;;;;95.35;19.38;;;;;;;;;;5051460;28;20037;-72
2022/12/10 07:47:30;;;;;;;65.18;19.85;;;;;;;;;;5051085;28;20041;-72
2022/12/10 07:49:56;;;;;;;87.93;18.25;;;;;;;;;;5052250;28;20486;-73
2022/12/10 07:52:23;;;;;;;80.78;18.95;;;;;;;;;;5051199;28;20043;-73
2022/12/10 07:54:49;;;;;;;105.50;20.67;;;;;;;;;;5055618;28;20037;-72
2022/12/10 07:57:15;;;;;;;87.32;18.85;;;;;;;;;;5037981;28;20044;-72
2022/12/10 07:59:41;;;;;;;108.40;20.20;;;;;;;;;;5054262;28;20342;-72
2022/12/10 08:02:08;;;;;;;129.68;20.90;;;;;;;;;;5037513;28;20037;-72
2022/12/10 08:04:34;;;;;;;93.50;22.17;;;;;;;;;;5038015;28;20389;-72
2022/12/10 08:07:00;;;;;;;99.43;21.17;;;;;;;;;;5088000;28;20477;-72
2022/12/10 08:09:26;;;;;;;88.00;19.95;;;;;;;;;;5054742;28;20049;-72
2022/12/10 08:11:53;;;;;;;105.57;21.48;;;;;;;;;;5054194;28;20041;-72
2022/12/10 08:14:19;;;;;;;95.80;21.80;;;;;;;;;;5087707;28;20049;-72
2022/12/10 08:16:45;;;;;;;103.50;23.48;;;;;;;;;;5054219;28;20401;-72
2022/12/10 08:19:11;;;;;;;88.78;21.38;;;;;;;;;;5037503;28;20080;-72
2022/12/10 08:21:37;;;;;;;85.72;21.92;;;;;;;;;;5053734;28;20110;-72
2022/12/10 08:24:03;;;;;;;97.40;21.58;;;;;;;;;;5054228;28;20045;-72
2022/12/10 08:26:31;;;;;;;106.40;22.65;;;;;;;;;;5053980;28;20127;-72
2022/12/10 08:28:57;;;;;;;101.82;21.15;;;;;;;;;;5053904;28;20537;-72
2022/12/10 08:31:24;;;;;;;91.97;21.98;;;;;;;;;;5053790;28;20041;-76
2022/12/10 08:33:50;;;;;;;111.32;24.02;;;;;;;;;;5054069;28;20040;-73
2022/12/10 08:36:18;;;;;;;98.50;21.58;;;;;;;;;;5036878;28;20082;-73
2022/12/10 08:38:44;;;;;;;120.47;24.63;;;;;;;;;;5053651;28;20071;-73
2022/12/10 08:41:15;;;;;;;103.28;21.83;;;;;;;;;;5053849;28;20041;-73
2022/12/10 08:43:41;;;;;;;109.60;24.45;;;;;;;;;;5053495;28;20037;-73
2022/12/10 08:46:08;;;;;;;131.00;24.63;;;;;;;;;;5037251;28;20086;-72
2022/12/10 08:48:34;;;;;;;86.10;21.92;;;;;;;;;;5053517;28;20060;-72
2022/12/10 08:51:00;;;;;;;93.10;21.90;;;;;;;;;;5053560;28;20044;-73
2022/12/10 08:53:26;;;;;;;112.22;22.95;;;;;;;;;;5037177;28;20388;-72
2022/12/10 08:55:53;;;;;;;116.72;24.48;;;;;;;;;;5053517;28;20461;-72
2022/12/10 08:58:19;;;;;;;140.57;23.23;;;;;;;;;;5036724;28;20045;-73
2022/12/10 09:00:46;;;;;;;88.07;22.33;;;;;;;;;;5053368;28;20154;-73
2022/12/10 09:03:12;;;;;;;84.53;21.85;;;;;;;;;;5053015;28;20115;-72
2022/12/10 09:05:38;;;;;;;109.15;20.90;;;;;;;;;;5053416;28;20058;-72
2022/12/10 09:08:04;;;;;;;91.40;21.67;;;;;;;;;;5052751;28;20044;-72
2022/12/10 09:10:30;;;;;;;112.10;23.95;;;;;;;;;;5052946;28;20150;-73
2022/12/10 09:12:56;;;;;;;102.22;21.88;;;;;;;;;;5053393;28;20040;-72
2022/12/10 09:15:22;;;;;;;92.95;22.25;;;;;;;;;;5036814;28;20056;-72
2022/12/10 09:17:48;;;;;;;91.50;21.95;;;;;;;;;;5069580;28;20045;-72
2022/12/10 09:20:15;;;;;;;80.82;20.73;;;;;;;;;;5052818;28;20508;-73
2022/12/10 09:22:41;;;;;;;83.07;21.65;;;;;;;;;;5052662;28;20493;-73
2022/12/10 09:25:09;;;;;;;85.90;21.77;;;;;;;;;;5052327;28;20037;-72
2022/12/10 09:27:36;;;;;;;100.68;23.65;;;;;;;;;;5052939;28;20051;-72
2022/12/10 09:30:03;;;;;;;95.82;24.58;;;;;;;;;;5053279;28;20087;-73
2022/12/10 09:32:29;;;;;;;97.65;23.63;;;;;;;;;;5052907;28;20085;-72
2022/12/10 09:34:55;;;;;;;97.03;24.58;;;;;;;;;;5052619;28;20048;-72
2022/12/10 09:37:21;;;;;;;99.72;24.27;;;;;;;;;;5052646;28;20084;-72
2022/12/10 09:39:47;;;;;;;110.60;26.27;;;;;;;;;;5052244;28;20041;-72
2022/12/10 09:42:13;;;;;;;105.13;24.95;;;;;;;;;;5053150;28;20093;-75
2022/12/10 09:44:46;;;;;;;123.57;25.48;;;;;;;;;;5052702;28;20106;-72
2022/12/10 09:47:12;;;;;;;94.32;24.70;;;;;;;;;;5051986;28;20372;-72
2022/12/10 09:49:38;;;;;;;93.63;25.45;;;;;;;;;;5054044;28;20040;-73
2022/12/10 09:52:06;;;;;;;86.40;23.90;;;;;;;;;;5052755;28;20124;-72
2022/12/10 09:54:40;;;;;;;96.18;25.08;;;;;;;;;;5052518;28;20490;-72
2022/12/10 09:57:07;;;;;;;96.30;25.30;;;;;;;;;;5035929;28;20040;-72
2022/12/10 09:59:42;;;;;;;85.80;24.50;;;;;;;;;;5052608;28;20399;-72
2022/12/10 10:02:29;;;;;;;92.70;26.17;;;;;;;;;;5061168;28;20041;-72
2022/12/10 10:04:59;;;;;;;91.07;24.63;;;;;;;;;;5051931;28;20037;-72
2022/12/10 10:07:27;;;;;;;107.93;24.83;;;;;;;;;;5035901;28;20552;-72
2022/12/10 10:09:58;;;;;;;90.55;25.58;;;;;;;;;;5050917;28;20535;-72
2022/12/10 10:12:27;;;;;;;108.10;26.13;;;;;;;;;;5052043;28;20033;-72
2022/12/10 10:14:53;;;;;;;104.28;24.17;;;;;;;;;;5035500;28;20045;-73
2022/12/10 10:17:38;;;;;;;84.88;24.10;;;;;;;;;;5051889;28;20473;-73
2022/12/10 10:20:05;;;;;;;84.28;22.30;;;;;;;;;;5052171;28;20045;-73
2022/12/10 10:22:35;;;;;;;80.47;23.48;;;;;;;;;;5035393;28;20580;-73
2022/12/10 10:25:05;;;;;;;87.10;24.00;;;;;;;;;;5052235;28;20059;-73
2022/12/10 10:27:33;;;;;;;96.43;24.50;;;;;;;;;;5052084;28;20451;-73
2022/12/10 10:30:01;;;;;;;87.15;24.25;;;;;;;;;;5018467;28;20520;-73
2022/12/10 10:32:33;;;;;;;84.03;23.58;;;;;;;;;;5052224;28;20040;-73
2022/12/10 10:35:06;;;;;;;82.22;23.08;;;;;;;;;;5036132;28;20033;-75
2022/12/10 10:37:40;;;;;;;78.00;22.63;;;;;;;;;;5034920;28;20082;-74
2022/12/10 10:40:07;;;;;;;85.70;24.13;;;;;;;;;;5052174;28;20473;-72
2022/12/10 10:42:41;;;;;;;86.18;24.05;;;;;;;;;;5052610;28;20044;-73
2022/12/10 10:45:27;;;;;;;73.47;22.10;;;;;;;;;;5051884;28;20033;-73
2022/12/10 10:48:06;;;;;;;84.15;22.52;;;;;;;;;;5051476;28;20033;-73
2022/12/10 10:50:36;;;;;;;78.05;23.80;;;;;;;;;;5051468;28;20041;-73
2022/12/10 10:53:02;;;;;;;96.63;23.23;;;;;;;;;;5051437;28;20175;-73
2022/12/10 10:55:35;;;;;;;106.13;25.23;;;;;;;;;;5050824;28;20049;-72
2022/12/10 10:58:01;;;;;;;98.18;25.08;;;;;;;;;;5049028;28;20056;-72
2022/12/10 11:00:27;;;;;;;90.10;25.42;;;;;;;;;;5049254;28;20064;-72
2022/12/10 11:02:54;;;;;;;99.72;25.08;;;;;;;;;;5075385;28;20130;-72
2022/12/10 11:05:27;;;;;;;87.80;26.35;;;;;;;;;;5049142;28;20179;-73
2022/12/10 11:08:04;;;;;;;90.93;24.48;;;;;;;;;;5050302;28;20033;-73
2022/12/10 11:10:30;;;;;;;86.88;26.63;;;;;;;;;;5050644;28;20052;-73
2022/12/10 11:12:56;;;;;;;89.10;24.95;;;;;;;;;;5051030;28;20048;-73
2022/12/10 11:15:22;;;;;;;101.38;27.73;;;;;;;;;;5051046;28;20033;-72
2022/12/10 11:17:53;;;;;;;104.90;28.08;;;;;;;;;;5051218;28;20044;-72
2022/12/10 11:20:21;;;;;;;91.13;25.27;;;;;;;;;;5048496;28;20043;-72
2022/12/10 11:22:56;;;;;;;92.88;27.45;;;;;;;;;;5051096;28;20425;-72
2022/12/10 11:25:40;;;;;;;97.22;29.30;;;;;;;;;;5050896;28;20068;-72
2022/12/10 11:28:25;;;;;;;96.72;27.85;;;;;;;;;;5078284;28;20124;-72
2022/12/10 11:30:56;;;;;;;98.30;25.42;;;;;;;;;;5079033;28;20076;-73
2022/12/10 11:33:35;;;;;;;90.18;25.98;;;;;;;;;;5054649;28;20045;-73
2022/12/10 11:36:15;;;;;;;82.88;22.95;;;;;;;;;;5054762;28;20048;-72
2022/12/10 11:38:41;;;;;;;85.95;24.67;;;;;;;;;;5079124;28;20041;-70
2022/12/10 11:41:07;;;;;;;77.63;24.77;;;;;;;;;;5054522;28;20076;-72
2022/12/10 11:43:52;;;;;;;88.50;25.23;;;;;;;;;;5055207;28;20040;-71
2022/12/10 11:46:28;;;;;;;82.35;24.08;;;;;;;;;;5054802;28;20049;-72
2022/12/10 11:49:01;;;;;;;84.88;24.05;;;;;;;;;;5054957;28;20041;-72
2022/12/10 11:51:44;;;;;;;;;;;2.30;99.90;;;;;;5055418;28;20559;-72
2022/12/10 11:54:10;;;;;;;72.50;22.08;;;;;;;;;;5054990;28;20392;-72
2022/12/10 11:56:39;;;;;;;75.90;24.00;;;;;;;;;;5055173;28;20071;-72
2022/12/10 11:59:24;;;;;;;81.60;23.55;;;;;;;;;;5054735;28;20045;-72
2022/12/10 12:02:08;;;;;;;77.85;23.35;;;;;;;;;;5054642;28;20045;-72
2022/12/10 12:04:53;;;;;;;89.13;26.60;;;;;;;;;;5054587;28;20123;-72
2022/12/10 12:07:25;;;;;;;76.45;23.20;;;;;;;;;;5054644;28;20063;-73
2022/12/10 12:10:00;;;;;;;80.90;25.15;;;;;;;;;;5054831;28;20056;-72
2022/12/10 12:12:38;;;;;;;81.75;24.80;;;;;;;;;;5054803;28;20063;-73
2022/12/10 12:15:14;;;;;;;81.68;23.70;;;;;;;;;;5037958;28;20076;-73
2022/12/10 12:17:46;;;;;;;78.30;23.23;;;;;;;;;;5054412;28;20044;-72
2022/12/10 12:20:12;;;;;;;79.03;24.65;;;;;;;;;;5054543;28;20037;-72
2022/12/10 12:22:39;;;;;;;76.47;22.08;;;;;;;;;;5055935;28;20057;-74
2022/12/10 12:25:05;;;;;;;83.30;25.73;;;;;;;;;;5054574;28;20073;-74
2022/12/10 12:27:34;;;;;;;99.75;25.92;;;;;;;;;;5054523;28;20045;-75
2022/12/10 12:30:06;;;;;;;91.05;26.50;;;;;;;;;;5037453;28;20048;-75
2022/12/10 12:32:32;;;;;;;83.72;24.67;;;;;;;;;;5054161;28;20043;-75
2022/12/10 12:34:58;;;;;;;83.50;25.63;;;;;;;;;;5053496;28;20045;-75
2022/12/10 12:37:28;;;;;;;87.72;26.98;;;;;;;;;;5037474;28;20128;-73
2022/12/10 12:40:28;;;;;;;80.78;25.38;;;2.40;99.90;;;;;;5053297;28;20059;-73
2022/12/10 12:43:14;;;;;;;87.20;26.50;;;;;;;;;;5053664;28;20051;-71
2022/12/10 12:45:41;;;;;;;90.95;25.63;;;;;;;;;;5053543;28;20048;-71
2022/12/10 12:48:10;;;;;;;89.82;26.08;;;;;;;;;;5053821;28;20559;-71
2022/12/10 12:50:55;;;;;;;92.40;26.42;;;;;;;;;;5053444;28;20131;-70
2022/12/10 12:53:22;;;;;;;81.80;24.02;;;;;;;;;;5053468;28;20076;-70
2022/12/10 12:55:50;;;;;;;80.78;25.73;;;;;;;;;;5053498;28;20051;-70
2022/12/10 12:58:21;;;;;;;83.38;24.15;;;;;;;;;;5053712;28;20044;-70
2022/12/10 13:00:48;;;;;;;76.90;25.95;;;;;;;;;;5053186;28;20045;-71
2022/12/10 13:03:18;;;;;;;72.63;24.67;;;;;;;;;;5054718;28;20481;-71
2022/12/10 13:05:44;;;;;;;69.30;22.85;;;;;;;;;;5036688;28;20482;-71
2022/12/10 13:08:16;;;;;;;68.88;22.20;;;;;;;;;;5053262;28;20041;-71
2022/12/10 13:10:50;;;;;;;67.95;22.38;;;;;;;;;;5052785;28;20037;-71
2022/12/10 13:13:22;;;;;;;67.32;23.42;;;;;;;;;;5052819;28;20041;-71
2022/12/10 13:15:48;;;;;;;65.18;22.25;;;;;;;;;;5052964;28;20088;-71
2022/12/10 13:18:15;;;;;;;71.00;23.98;;;;;;;;;;5052945;28;20041;-71
2022/12/10 13:20:46;;;;;;;63.05;22.52;;;;;;;;;;5053244;28;20052;-71
2022/12/10 13:23:24;;;;;;;68.85;22.75;;;;;;;;;;5053163;28;20049;-71
2022/12/10 13:25:54;;;;;;;71.20;22.08;;;;;;;;;;5052204;28;20084;-71
2022/12/10 13:28:26;;;;;;;68.78;23.63;;;;;;;;;;5035542;28;20351;-71
2022/12/10 13:31:16;;;;;;;77.53;24.98;;;;;;;;;;5050121;28;20158;-71
2022/12/10 13:33:53;;;;;;;71.80;22.70;;;;;;;;;;5044668;28;20053;-71
2022/12/10 13:36:27;;;;;;;81.95;23.80;;;;;;;;;;5053867;28;20040;-71
2022/12/10 13:38:58;;;;;;;75.15;25.15;;;;;;;;;;5052722;28;20082;-71
2022/12/10 13:44:27;;;;;;;71.43;23.83;;;;;;;;;;5049814;28;20044;-71
2022/12/10 13:46:53;;;;;;;70.15;24.35;;;;;;;;;;5050269;28;20094;-71
2022/12/10 13:49:22;;;;;;;78.63;23.20;;;;;;;;;;5035387;28;20041;-71
2022/12/10 13:51:51;;;;;;;66.95;21.90;;;;;;;;;;5048689;28;20041;-71
2022/12/10 13:54:20;;;;;;;68.43;23.02;;;;;;;;;;5052261;28;20148;-70
2022/12/10 13:56:55;;;;;;;73.75;23.30;;;;;;;;;;5051184;28;20068;-70
2022/12/10 13:59:37;;;;;;;66.35;22.20;;;;;;;;;;5051805;28;20048;-71
2022/12/10 14:02:21;;;;;;;64.75;20.88;;;;;;;;;;5041071;28;20083;-70
2022/12/10 14:04:56;;;;;;;80.28;23.02;;;;;;;;;;5052156;28;20175;-70
2022/12/10 14:07:23;;;;;;;67.57;23.00;;;;;;;;;;5050982;28;20033;-70
2022/12/10 14:09:51;;;;;;;65.18;21.67;;;;;;;;;;5053650;28;20112;-70
2022/12/10 14:12:19;;;;;;;66.60;21.95;;;;;;;;;;5052128;28;20040;-70
2022/12/10 14:14:53;;;;;;;58.65;20.67;;;;;;;;;;5053560;28;20033;-71
2022/12/10 14:17:21;;;;;;;64.00;20.92;;;;;;;;;;5052123;28;20111;-71
2022/12/10 14:19:48;;;;;;;58.20;22.15;;;;;;;;;;5052080;28;20041;-70
2022/12/10 14:22:20;;;;;;;65.70;22.20;;;;;;;;;;5035326;28;20493;-71
2022/12/10 14:24:47;;;;;;;61.03;22.80;;;;;;;;;;5051626;28;20409;-70
2022/12/10 14:27:14;;;;;;;73.32;23.13;;;;;;;;;;5050857;28;20049;-70
2022/12/10 14:29:50;;;;;;;62.05;20.45;;;;;;;;;;5050908;28;20043;-70
2022/12/10 14:32:18;;;;;;;67.82;22.42;;;;;;;;;;5072833;28;20045;-70
2022/12/10 14:34:49;;;;;;;67.60;22.27;;;;;;;;;;5050505;28;20041;-70